createdAt,value
2022-08-07T00:02:36.830Z,3.33
2022-08-07T00:05:09.476Z,2.30
2022-08-07T00:07:40.937Z,2.60
2022-08-07T00:10:27.330Z,2.77
2022-08-07T00:13:17.619Z,2.90
2022-08-07T00:15:56.077Z,2.37
2022-08-07T00:18:29.993Z,3.30
2022-08-07T00:21:03.515Z,2.80
2022-08-07T00:23:41.633Z,2.93
2022-08-07T00:26:31.260Z,2.63
2022-08-07T00:29:07.161Z,2.57
2022-08-07T00:31:42.073Z,2.80
2022-08-07T00:34:12.505Z,2.70
2022-08-07T00:36:46.699Z,2.43
2022-08-07T00:39:17.531Z,2.60
2022-08-07T00:42:01.362Z,2.50
2022-08-07T00:44:38.205Z,2.10
2022-08-07T00:47:25.453Z,2.63
2022-08-07T00:50:20.123Z,2.30
2022-08-07T00:52:53.140Z,2.50
2022-08-07T00:55:25.378Z,2.60
2022-08-07T00:58:13.598Z,2.40
2022-08-07T01:00:54.048Z,2.53
2022-08-07T01:03:54.661Z,2.60
2022-08-07T01:06:15.747Z,2.50
2022-08-07T01:08:53.472Z,2.50
2022-08-07T01:12:23.438Z,2.67
2022-08-07T01:14:16.713Z,2.23
2022-08-07T01:16:50.607Z,2.50
2022-08-07T01:19:25.302Z,2.73
2022-08-07T01:21:59.806Z,2.57
2022-08-07T01:24:35.993Z,3.07
2022-08-07T01:27:19.751Z,2.40
2022-08-07T01:29:50.799Z,2.53
2022-08-07T01:32:23.096Z,2.80
2022-08-07T01:34:56.358Z,2.77
2022-08-07T01:37:30.826Z,2.17
2022-08-07T01:40:05.234Z,2.50
2022-08-07T01:42:57.007Z,3.20
2022-08-07T01:45:36.422Z,2.93
2022-08-07T01:48:20.999Z,2.90
2022-08-07T01:50:59.932Z,2.97
2022-08-07T01:54:08.808Z,3.00
2022-08-07T01:56:51.154Z,3.60
2022-08-07T01:59:31.107Z,3.13
2022-08-07T02:02:10.464Z,2.93
2022-08-07T02:04:55.755Z,2.90
2022-08-07T02:07:36.207Z,3.63
2022-08-07T02:10:29.521Z,3.23
2022-08-07T02:13:04.466Z,3.80
2022-08-07T02:15:47.105Z,2.73
2022-08-07T02:18:19.206Z,3.10
2022-08-07T02:20:57.285Z,3.20
2022-08-07T02:23:31.153Z,3.13
2022-08-07T02:26:33.149Z,2.80
2022-08-07T02:29:02.882Z,2.77
2022-08-07T02:31:35.473Z,2.87
2022-08-07T02:34:11.596Z,3.20
2022-08-07T02:36:54.546Z,2.90
2022-08-07T02:39:42.855Z,2.57
2022-08-07T02:42:22.761Z,3.20
2022-08-07T02:44:58.468Z,3.70
2022-08-07T02:47:35.051Z,3.40
2022-08-07T02:50:19.319Z,3.90
2022-08-07T02:53:00.899Z,3.13
2022-08-07T02:56:04.416Z,3.33
2022-08-07T02:58:37.279Z,2.63
2022-08-07T03:01:18.721Z,3.30
2022-08-07T03:03:51.014Z,3.00
2022-08-07T03:06:33.249Z,3.07
2022-08-07T03:09:11.415Z,3.40
2022-08-07T03:11:52.605Z,2.70
2022-08-07T03:14:33.809Z,3.13
2022-08-07T03:17:04.526Z,2.90
2022-08-07T03:19:37.486Z,2.57
2022-08-07T03:22:18.785Z,2.80
2022-08-07T03:24:49.502Z,2.60
2022-08-07T03:27:30.609Z,2.50
2022-08-07T03:30:17.678Z,3.37
2022-08-07T03:32:58.660Z,3.10
2022-08-07T03:35:43.960Z,2.90
2022-08-07T03:38:29.632Z,2.83
2022-08-07T03:41:03.369Z,3.13
2022-08-07T03:43:36.088Z,3.00
2022-08-07T03:46:18.626Z,2.97
2022-08-07T03:49:02.617Z,3.07
2022-08-07T03:51:47.703Z,3.00
2022-08-07T03:54:36.255Z,3.40
2022-08-07T03:58:34.573Z,3.23
2022-08-07T04:00:11.851Z,3.30
2022-08-07T04:02:56.733Z,2.83
2022-08-07T04:05:39.623Z,3.00
2022-08-07T04:08:18.454Z,3.63
2022-08-07T04:10:53.801Z,3.30
2022-08-07T04:14:10.268Z,3.40
2022-08-07T04:16:37.714Z,3.70
2022-08-07T04:19:17.636Z,2.90
2022-08-07T04:21:59.579Z,2.90
2022-08-07T04:24:41.276Z,3.40
2022-08-07T04:27:20.449Z,3.43
2022-08-07T04:30:01.718Z,3.50
2022-08-07T04:32:44.977Z,2.87
2022-08-07T04:35:21.862Z,3.67
2022-08-07T04:38:05.510Z,3.63
2022-08-07T04:40:51.362Z,3.23
2022-08-07T04:44:11.723Z,3.27
2022-08-07T04:46:59.199Z,3.90
2022-08-07T04:49:39.721Z,3.37
2022-08-07T04:52:30.641Z,3.40
2022-08-07T04:58:12.484Z,2.90
2022-08-07T04:58:33.733Z,3.37
2022-08-07T05:01:20.606Z,3.57
2022-08-07T05:04:08.601Z,4.00
2022-08-07T05:06:56.317Z,3.30
2022-08-07T05:09:47.052Z,3.30
2022-08-07T05:12:32.663Z,3.97
2022-08-07T05:15:23.325Z,3.43
2022-08-07T05:18:08.581Z,3.87
2022-08-07T05:20:46.374Z,3.40
2022-08-07T05:23:29.942Z,3.90
2022-08-07T05:26:13.348Z,3.40
2022-08-07T05:28:56.394Z,3.23
2022-08-07T05:31:38.511Z,2.93
2022-08-07T05:34:15.946Z,3.00
2022-08-07T05:36:53.317Z,3.33
2022-08-07T05:40:17.166Z,3.90
2022-08-07T05:42:33.723Z,3.67
2022-08-07T05:45:26.275Z,4.10
2022-08-07T05:48:07.746Z,3.63
2022-08-07T05:50:46.096Z,3.87
2022-08-07T05:54:12.982Z,4.80
2022-08-07T05:56:13.884Z,4.70
2022-08-07T05:58:53.791Z,3.97
2022-08-07T06:01:35.697Z,4.63
2022-08-07T06:04:09.758Z,4.50
2022-08-07T06:06:46.087Z,4.90
2022-08-07T06:09:20.221Z,5.00
2022-08-07T06:12:11.315Z,4.37
2022-08-07T06:14:49.468Z,4.57
2022-08-07T06:17:22.522Z,6.10
2022-08-07T06:20:04.751Z,3.90
2022-08-07T06:22:40.384Z,4.40
2022-08-07T06:25:34.843Z,4.70
2022-08-07T06:28:07.631Z,4.10
2022-08-07T06:30:45.863Z,4.30
2022-08-07T06:33:22.553Z,4.77
2022-08-07T06:36:12.427Z,3.83
2022-08-07T06:38:59.353Z,4.10
2022-08-07T06:42:00.787Z,4.80
2022-08-07T06:44:54.850Z,4.10
2022-08-07T06:47:47.787Z,4.40
2022-08-07T06:50:20.714Z,4.80
2022-08-07T06:52:57.148Z,4.20
2022-08-07T06:55:53.574Z,3.90
2022-08-07T06:58:28.731Z,4.10
2022-08-07T07:01:09.951Z,4.00
2022-08-07T07:03:50.027Z,3.60
2022-08-07T07:06:29.308Z,3.80
2022-08-07T07:08:59.664Z,3.90
2022-08-07T07:12:09.131Z,3.50
2022-08-07T07:14:27.343Z,4.50
2022-08-07T07:17:02.488Z,3.13
2022-08-07T07:19:57.993Z,3.43
2022-08-07T07:22:36.879Z,3.47
2022-08-07T07:26:32.658Z,3.30
2022-08-07T07:28:42.369Z,3.30
2022-08-07T07:31:21.853Z,3.30
2022-08-07T07:33:58.364Z,3.17
2022-08-07T07:36:33.776Z,2.93
2022-08-07T07:39:07.084Z,3.00
2022-08-07T07:42:01.983Z,3.00
2022-08-07T07:44:34.383Z,3.40
2022-08-07T07:47:14.179Z,2.90
2022-08-07T07:50:33.021Z,2.97
2022-08-07T07:52:47.536Z,3.00
2022-08-07T07:55:21.920Z,3.10
2022-08-07T07:57:58.399Z,2.50
2022-08-07T08:00:34.258Z,2.80
2022-08-07T08:03:16.622Z,2.90
2022-08-07T08:05:55.035Z,2.10
2022-08-07T08:08:37.049Z,2.77
2022-08-07T08:11:16.064Z,2.30
2022-08-07T08:13:52.924Z,2.63
2022-08-07T08:16:32.747Z,2.33
2022-08-07T08:20:15.647Z,2.10
2022-08-07T08:22:15.936Z,2.37
2022-08-07T08:25:24.570Z,2.47
2022-08-07T08:28:01.893Z,3.00
2022-08-07T08:30:42.857Z,2.27
2022-08-07T08:33:28.889Z,2.63
2022-08-07T08:36:05.322Z,2.20
2022-08-07T08:38:43.101Z,2.27
2022-08-07T08:41:31.484Z,2.10
2022-08-07T08:44:29.359Z,2.07
2022-08-07T08:47:11.670Z,2.43
2022-08-07T08:50:04.984Z,2.37
2022-08-07T08:52:51.679Z,2.30
2022-08-07T08:55:55.581Z,1.90
2022-08-07T08:58:38.649Z,2.10
2022-08-07T09:01:18.657Z,2.50
2022-08-07T09:04:09.005Z,1.90
2022-08-07T09:06:54.942Z,2.00
2022-08-07T09:09:56.548Z,2.30
2022-08-07T09:12:53.250Z,1.80
2022-08-07T09:16:23.130Z,1.70
2022-08-07T09:19:53.707Z,2.03
2022-08-07T09:24:33.303Z,1.53
2022-08-07T09:25:28.562Z,1.70
2022-08-07T09:30:01.464Z,2.00
2022-08-07T09:31:10.813Z,1.90
2022-08-07T09:34:10.218Z,3.10
2022-08-07T09:36:50.781Z,1.50
2022-08-07T09:39:55.365Z,1.80
2022-08-07T09:42:50.440Z,1.77
2022-08-07T09:47:25.813Z,2.20
2022-08-07T09:50:01.949Z,2.20
2022-08-07T09:52:16.586Z,2.03
2022-08-07T09:54:57.193Z,1.70
2022-08-07T09:58:03.844Z,1.80
2022-08-07T10:00:57.401Z,1.77
2022-08-07T10:04:06.115Z,1.70
2022-08-07T10:07:25.678Z,1.50
2022-08-07T10:10:28.309Z,1.70
2022-08-07T10:14:00.686Z,2.03
2022-08-07T10:17:14.220Z,1.80
2022-08-07T10:20:30.616Z,2.40
2022-08-07T10:24:06.811Z,1.53
2022-08-07T10:27:03.050Z,1.87
2022-08-07T10:30:03.923Z,1.97
2022-08-07T10:33:14.910Z,1.80
2022-08-07T10:36:17.858Z,1.97
2022-08-07T10:39:08.481Z,1.90
2022-08-07T10:41:53.804Z,1.60
2022-08-07T10:44:46.282Z,1.57
2022-08-07T10:47:53.929Z,1.87
2022-08-07T10:50:32.337Z,1.60
2022-08-07T10:53:13.895Z,1.67
2022-08-07T10:56:02.248Z,1.67
2022-08-07T10:58:59.463Z,1.80
2022-08-07T11:01:51.332Z,2.27
2022-08-07T11:04:58.618Z,1.60
2022-08-07T11:07:58.441Z,1.77
2022-08-07T11:10:43.591Z,2.00
2022-08-07T11:14:42.056Z,1.73
2022-08-07T11:16:30.612Z,1.60
2022-08-07T11:19:12.615Z,2.00
2022-08-07T11:21:52.949Z,1.73
2022-08-07T11:24:33.150Z,1.80
2022-08-07T11:27:16.656Z,1.50
2022-08-07T11:30:18.077Z,1.63
2022-08-07T11:33:07.950Z,1.80
2022-08-07T11:36:01.359Z,1.97
2022-08-07T11:38:50.574Z,2.30
2022-08-07T11:41:29.641Z,2.10
2022-08-07T11:44:35.550Z,1.73
2022-08-07T11:47:20.742Z,1.97
2022-08-07T11:50:33.548Z,1.60
2022-08-07T11:53:23.748Z,1.53
2022-08-07T11:56:26.988Z,1.77
2022-08-07T12:00:10.444Z,1.77
2022-08-07T12:02:49.832Z,1.70
2022-08-07T12:05:47.480Z,2.50
2022-08-07T12:08:34.388Z,1.90
2022-08-07T12:11:21.228Z,2.00
2022-08-07T12:14:00.817Z,2.00
2022-08-07T12:16:39.401Z,1.57
2022-08-07T12:19:22.568Z,1.90
2022-08-07T12:22:38.759Z,1.80
2022-08-07T12:26:03.083Z,1.93
2022-08-07T12:28:30.806Z,1.80
2022-08-07T12:31:09.852Z,1.90
2022-08-07T12:34:01.424Z,10.87
2022-08-07T12:36:37.530Z,2.10
2022-08-07T12:39:43.961Z,2.07
2022-08-07T12:42:07.035Z,3.10
2022-08-07T12:44:44.903Z,1.90
2022-08-07T12:47:31.589Z,2.07
2022-08-07T12:50:33.713Z,1.80
2022-08-07T12:53:22.060Z,2.10
2022-08-07T12:56:04.258Z,2.00
2022-08-07T12:58:46.868Z,2.23
2022-08-07T13:01:45.268Z,2.10
2022-08-07T13:04:49.203Z,2.40
2022-08-07T13:08:18.921Z,2.00
2022-08-07T13:11:08.814Z,2.07
2022-08-07T13:13:58.736Z,1.97
2022-08-07T13:16:39.761Z,2.47
2022-08-07T13:19:35.145Z,2.10
2022-08-07T13:22:27.912Z,2.10
2022-08-07T13:25:09.169Z,2.40
2022-08-07T13:28:12.786Z,2.23
2022-08-07T13:30:40.811Z,1.70
2022-08-07T13:34:31.722Z,1.93
2022-08-07T13:36:28.693Z,2.20
2022-08-07T13:39:12.749Z,2.40
2022-08-07T13:41:54.666Z,2.03
2022-08-07T13:44:34.431Z,1.70
2022-08-07T13:47:15.044Z,2.10
2022-08-07T13:50:35.518Z,2.30
2022-08-07T13:52:47.022Z,2.80
2022-08-07T13:55:26.450Z,1.70
2022-08-07T13:58:27.725Z,2.17
2022-08-07T14:01:10.711Z,2.00
2022-08-07T14:04:07.053Z,2.13
2022-08-07T14:06:40.860Z,1.90
2022-08-07T14:10:01.533Z,1.90
2022-08-07T14:12:27.609Z,2.47
2022-08-07T14:15:10.499Z,2.20
2022-08-07T14:18:16.143Z,1.93
2022-08-07T14:20:48.824Z,2.10
2022-08-07T14:23:59.053Z,2.00
2022-08-07T14:30:05.353Z,2.07
2022-08-07T14:32:16.183Z,2.10
2022-08-07T14:34:52.485Z,1.93
2022-08-07T14:37:36.278Z,1.90
2022-08-07T14:40:26.615Z,2.10
2022-08-07T14:43:58.778Z,1.97
2022-08-07T14:45:59.125Z,2.10
2022-08-07T14:48:35.590Z,1.90
2022-08-07T14:51:15.747Z,2.40
2022-08-07T14:54:09.693Z,2.20
2022-08-07T14:56:46.211Z,2.40
2022-08-07T15:00:05.215Z,2.20
2022-08-07T15:02:33.014Z,2.23
2022-08-07T15:05:19.798Z,2.43
2022-08-07T15:08:01.435Z,2.20
2022-08-07T15:10:32.342Z,1.70
2022-08-07T15:16:11.116Z,2.60
2022-08-07T15:18:48.988Z,2.27
2022-08-07T15:21:44.731Z,2.23
2022-08-07T15:27:19.284Z,2.13
2022-08-07T15:30:10.051Z,2.30
2022-08-07T15:33:03.702Z,2.23
2022-08-07T15:36:04.932Z,2.40
2022-08-07T15:38:51.287Z,2.47
2022-08-07T15:42:44.320Z,2.40
2022-08-07T15:44:24.206Z,2.37
2022-08-07T15:47:03.376Z,2.43
2022-08-07T15:50:05.177Z,2.37
2022-08-07T15:52:37.184Z,2.53
2022-08-07T15:55:15.482Z,3.13
2022-08-07T15:58:00.157Z,2.00
2022-08-07T16:00:39.999Z,2.00
2022-08-07T16:03:22.132Z,2.47
2022-08-07T16:06:11.889Z,2.57
2022-08-07T16:08:47.331Z,2.30
2022-08-07T16:11:47.492Z,2.43
2022-08-07T16:14:23.167Z,2.03
2022-08-07T16:17:14.852Z,2.10
2022-08-07T16:20:34.010Z,2.23
2022-08-07T16:23:53.509Z,2.73
2022-08-07T16:26:59.528Z,2.63
2022-08-07T16:30:17.756Z,2.23
2022-08-07T16:34:02.895Z,2.60
2022-08-07T16:36:31.116Z,2.23
2022-08-07T16:39:40.178Z,3.00
2022-08-07T16:42:44.427Z,2.13
2022-08-07T16:46:40.936Z,2.43
2022-08-07T16:50:20.625Z,2.00
2022-08-07T16:52:52.525Z,2.27
2022-08-07T16:55:47.468Z,2.70
2022-08-07T16:58:48.009Z,2.60
2022-08-07T17:01:41.386Z,2.67
2022-08-07T17:04:29.583Z,2.17
2022-08-07T17:07:13.548Z,2.37
2022-08-07T17:10:07.091Z,2.40
2022-08-07T17:12:53.231Z,2.43
2022-08-07T17:15:44.367Z,2.80
2022-08-07T17:18:35.133Z,2.20
2022-08-07T17:21:18.789Z,2.10
2022-08-07T17:24:07.021Z,2.60
2022-08-07T17:26:51.401Z,2.30
2022-08-07T17:30:15.157Z,2.30
2022-08-07T17:32:52.482Z,2.50
2022-08-07T17:35:50.031Z,3.03
2022-08-07T17:38:33.060Z,2.70
2022-08-07T17:42:02.663Z,2.10
2022-08-07T17:44:15.550Z,2.33
2022-08-07T17:47:09.072Z,2.10
2022-08-07T17:49:58.845Z,2.63
2022-08-07T17:52:39.991Z,2.70
2022-08-07T17:55:55.739Z,3.37
2022-08-07T17:58:11.396Z,1.97
2022-08-07T18:01:20.817Z,2.70
2022-08-07T18:04:16.447Z,2.47
2022-08-07T18:07:20.841Z,2.37
2022-08-07T18:10:05.945Z,2.57
2022-08-07T18:12:54.067Z,1.97
2022-08-07T18:15:33.111Z,2.30
2022-08-07T18:18:44.715Z,2.43
2022-08-07T18:21:38.249Z,2.20
2022-08-07T18:24:09.889Z,2.07
2022-08-07T18:27:22.934Z,2.07
2022-08-07T18:30:31.440Z,2.50
2022-08-07T18:33:39.430Z,2.20
2022-08-07T18:36:42.066Z,2.30
2022-08-07T18:40:06.407Z,2.40
2022-08-07T18:42:44.494Z,2.27
2022-08-07T18:45:44.123Z,1.80
2022-08-07T18:50:30.354Z,2.40
2022-08-07T18:52:37.861Z,2.20
2022-08-07T18:54:31.234Z,1.83
2022-08-07T18:57:36.788Z,2.27
2022-08-07T19:00:34.168Z,1.93
2022-08-07T19:03:18.189Z,4.23
2022-08-07T19:06:04.761Z,2.10
2022-08-07T19:08:52.646Z,2.10
2022-08-07T19:12:05.065Z,2.00
2022-08-07T19:14:55.447Z,2.23
2022-08-07T19:17:59.385Z,2.27
2022-08-07T19:21:08.525Z,3.20
2022-08-07T19:23:57.851Z,1.97
2022-08-07T19:27:16.781Z,1.93
2022-08-07T19:30:57.162Z,2.17
2022-08-07T19:32:34.564Z,2.10
2022-08-07T19:35:22.583Z,2.40
2022-08-07T19:38:01.673Z,2.10
2022-08-07T19:40:49.388Z,2.10
2022-08-07T19:43:44.119Z,1.80
2022-08-07T19:46:32.353Z,2.10
2022-08-07T19:49:09.801Z,2.40
2022-08-07T19:51:52.343Z,2.47
2022-08-07T19:54:31.146Z,2.07
2022-08-07T19:57:59.982Z,2.13
2022-08-07T20:00:10.166Z,2.33
2022-08-07T20:02:52.248Z,2.30
2022-08-07T20:05:29.425Z,2.43
2022-08-07T20:08:06.641Z,2.10
2022-08-07T20:10:55.211Z,2.20
2022-08-07T20:13:35.783Z,2.27
2022-08-07T20:16:15.867Z,1.97
2022-08-07T20:19:04.622Z,2.33
2022-08-07T20:21:42.171Z,2.10
2022-08-07T20:24:22.529Z,3.17
2022-08-07T20:26:56.518Z,2.03
2022-08-07T20:29:49.494Z,2.80
2022-08-07T20:32:27.024Z,2.07
2022-08-07T20:35:16.302Z,2.13
2022-08-07T20:37:58.264Z,2.27
2022-08-07T20:40:35.031Z,1.83
2022-08-07T20:43:09.657Z,2.10
2022-08-07T20:46:25.958Z,2.53
2022-08-07T20:49:54.052Z,2.50
2022-08-07T20:51:40.683Z,2.37
2022-08-07T20:54:30.272Z,2.50
2022-08-07T20:57:10.205Z,3.07
2022-08-07T21:00:08.016Z,2.80
2022-08-07T21:02:54.483Z,3.03
2022-08-07T21:05:52.694Z,2.60
2022-08-07T21:08:36.953Z,2.33
2022-08-07T21:11:14.784Z,2.20
2022-08-07T21:14:16.821Z,2.40
2022-08-07T21:16:56.797Z,2.27
2022-08-07T21:19:51.616Z,2.73
2022-08-07T21:22:35.930Z,2.20
2022-08-07T21:25:17.593Z,2.37
2022-08-07T21:28:07.751Z,2.07
2022-08-07T21:30:57.993Z,2.10
2022-08-07T21:33:41.928Z,2.47
2022-08-07T21:36:31.451Z,1.70
2022-08-07T21:39:45.844Z,2.47
2022-08-07T21:46:09.351Z,2.20
2022-08-07T21:48:34.347Z,2.03
2022-08-07T21:51:32.616Z,1.80
2022-08-07T21:54:21.642Z,2.67
2022-08-07T21:57:31.258Z,2.37
2022-08-07T22:00:22.085Z,2.13
2022-08-07T22:03:06.752Z,2.10
2022-08-07T22:05:52.594Z,2.20
2022-08-07T22:08:25.903Z,2.30
2022-08-07T22:11:08.397Z,2.20
2022-08-07T22:13:50.953Z,1.80
2022-08-07T22:16:44.320Z,2.57
2022-08-07T22:19:27.081Z,2.33
2022-08-07T22:22:20.827Z,2.77
2022-08-07T22:25:08.167Z,2.27
2022-08-07T22:28:06.375Z,2.20
2022-08-07T22:30:53.356Z,2.47
2022-08-07T22:33:50.988Z,2.50
2022-08-07T22:36:39.912Z,2.50
2022-08-07T22:39:24.080Z,3.13
2022-08-07T22:42:18.973Z,2.30
2022-08-07T22:44:59.885Z,2.20
2022-08-07T22:48:31.301Z,2.27
2022-08-07T22:51:36.660Z,2.23
2022-08-07T22:54:35.752Z,2.50
2022-08-07T22:57:26.066Z,2.10
2022-08-07T23:00:07.958Z,2.33
2022-08-07T23:02:56.999Z,2.83
2022-08-07T23:06:09.633Z,2.47
2022-08-07T23:10:01.218Z,2.60
2022-08-07T23:12:11.979Z,2.50
2022-08-07T23:15:21.863Z,2.90
2022-08-07T23:18:42.378Z,2.93
2022-08-07T23:21:29.994Z,2.77
2022-08-07T23:24:45.747Z,2.30
2022-08-07T23:28:21.105Z,2.53
2022-08-07T23:31:06.598Z,2.67
2022-08-07T23:34:35.252Z,2.57
2022-08-07T23:37:29.489Z,2.23
2022-08-07T23:40:17.327Z,2.97
2022-08-07T23:43:16.673Z,2.83
2022-08-07T23:46:10.650Z,2.80
2022-08-07T23:49:18.150Z,2.30
2022-08-07T23:52:58.835Z,3.03
2022-08-07T23:55:00.982Z,2.80
2022-08-07T23:57:38.886Z,2.63
